North Conway, New Hampshire
Current Conditions -  °F | °C
As of 11:54 PM on Friday 24 Oct 2014 (Local Time) from KIZG Reporting Station
Few Clouds Few Clouds  
Wind Chill: 43°   Ceiling: Unl
Heat Index: 45°   Visibility: 10mi
Dew Point: 42°   Wind: 5mph
Humidity: 90%   Direction: 230°SW
Pressure: 29.71"   Gusts: NA
Location:  44.05°N, 71.13°W
Report Text: KIZG 250354Z AUTO 23004KT 10SM FEW100 07/06 A2971 RMK AO2 SLP065 T00720056
Loading
Personal Weather Stations






























Interactive Weather Map
Tropical Storm Tracking
New forecast layout! Learn more

10-Day Weather Forecast

Advertisements
Track Severe Weather on mobile